Time;durP1;ratioP1;P1;durP2;ratioP2;P2;SDS_P1;SDS_P2;PMS_P1;PMS_P2;Temp;Humidity;BMP_temperature;BMP_pressure;BME280_temperature;BME280_humidity;BME280_pressure;Samples;Min_cycle;Max_cycle;Signal;HPM_P1;HPM_P2
2021/10/08 00:01:34;;;;;;;20.98;8.80;;;;;;;;;;5071103;28;20265;-66
2021/10/08 00:04:02;;;;;;;14.90;8.43;;;;;;;;;;5070721;28;20089;-64
2021/10/08 00:06:28;;;;;;;17.73;8.43;;;;;;;;;;5071334;28;20020;-65
2021/10/08 00:08:53;;;;;;;18.85;8.20;;;;;;;;;;5071021;28;20012;-64
2021/10/08 00:11:18;;;;;;;18.17;9.60;;;;;;;;;;5070975;28;20096;-64
2021/10/08 00:13:44;;;;;;;19.10;8.88;;;;;;;;;;5070707;28;20820;-65
2021/10/08 00:16:09;;;;;;;22.55;9.75;;;;;;;;;;5070495;28;20020;-65
2021/10/08 00:18:35;;;;;;;20.35;9.43;;;;;;;;;;5070395;28;20024;-65
2021/10/08 00:21:01;;;;;;;19.88;9.13;;;;;;;;;;5070992;28;20051;-65
2021/10/08 00:23:26;;;;;;;17.75;9.43;;;;;;;;;;5070533;28;20013;-65
2021/10/08 00:25:51;;;;;;;22.95;10.27;;;;;;;;;;5070856;28;20469;-64
2021/10/08 00:28:17;;;;;;;19.38;10.68;;;;;;;;;;5070537;28;20673;-63
2021/10/08 00:30:42;;;;;;;17.08;7.60;;;;;;;;;;5070653;28;20016;-65
2021/10/08 00:33:07;;;;;;;20.90;8.98;;;;;;;;;;5070233;28;20024;-62
2021/10/08 00:35:32;;;;;;;23.30;8.93;;;;;;;;;;5069098;28;20028;-64
2021/10/08 00:37:58;;;;;;;23.27;9.15;;;;;;;;;;5069887;28;20317;-64
2021/10/08 00:40:23;;;;;;;19.95;8.38;;;;;;;;;;5070641;28;20049;-64
2021/10/08 00:42:49;;;;;;;17.38;9.30;;;;;;;;;;5069670;28;20534;-63
2021/10/08 00:45:14;;;;;;;22.35;8.40;;;;;;;;;;5070337;28;20051;-65
2021/10/08 00:47:40;;;;;;;18.27;9.23;;;;;;;;;;5070398;28;20381;-64
2021/10/08 00:50:07;;;;;;;15.75;8.15;;;;;;;;;;5069903;28;20027;-66
2021/10/08 00:52:32;;;;;;;21.30;8.57;;;;;;;;;;5070043;28;20103;-64
2021/10/08 00:54:57;;;;;;;17.63;7.90;;;;;;;;;;5070303;28;20123;-64
2021/10/08 00:57:22;;;;;;;16.85;8.18;;;;;;;;;;5070430;28;20099;-63
2021/10/08 00:59:48;;;;;;;17.48;7.65;;;;;;;;;;5070555;28;20017;-63
2021/10/08 01:02:14;;;;;;;15.57;7.45;;;;;;;;;;5069539;28;20052;-64
2021/10/08 01:04:39;;;;;;;18.27;8.60;;;;;;;;;;5070245;28;20048;-65
2021/10/08 01:07:04;;;;;;;21.75;10.32;;;;;;;;;;5070545;28;20016;-63
2021/10/08 01:09:29;;;;;;;17.15;8.75;;;;;;;;;;5070270;28;20031;-64
2021/10/08 01:11:55;;;;;;;18.60;8.47;;;;;;;;;;5070302;28;20024;-63
2021/10/08 01:14:20;;;;;;;21.90;9.05;;;;;;;;;;5069959;28;20755;-64
2021/10/08 01:16:45;;;;;;;21.23;9.80;;;;;;;;;;5070301;28;20137;-63
2021/10/08 01:19:10;;;;;;;20.77;9.50;;;;;;;;;;5069970;28;20802;-64
2021/10/08 01:21:35;;;;;;;23.90;8.95;;;;;;;;;;5070114;28;20274;-65
2021/10/08 01:24:01;;;;;;;21.98;9.27;;;;;;;;;;5069846;28;20021;-64
2021/10/08 01:26:26;;;;;;;21.00;8.40;;;;;;;;;;5070038;28;20032;-64
2021/10/08 01:28:51;;;;;;;23.35;9.70;;;;;;;;;;5070258;28;20469;-64
2021/10/08 01:31:16;;;;;;;21.75;8.90;;;;;;;;;;5069740;28;20025;-64
2021/10/08 01:33:41;;;;;;;18.50;9.60;;;;;;;;;;5069325;28;20024;-64
2021/10/08 01:36:07;;;;;;;23.23;9.82;;;;;;;;;;5069445;28;20020;-64
2021/10/08 01:38:32;;;;;;;24.95;9.50;;;;;;;;;;5069786;28;20729;-64
2021/10/08 01:40:57;;;;;;;18.90;8.88;;;;;;;;;;5070194;28;20078;-63
2021/10/08 01:43:22;;;;;;;20.58;9.75;;;;;;;;;;5069576;28;20024;-64
2021/10/08 01:45:47;;;;;;;22.70;8.70;;;;;;;;;;5069717;28;20097;-63
2021/10/08 01:48:13;;;;;;;21.67;9.33;;;;;;;;;;5069771;28;20271;-64
2021/10/08 01:50:38;;;;;;;18.23;8.60;;;;;;;;;;5069960;28;20255;-64
2021/10/08 01:53:03;;;;;;;22.08;9.38;;;;;;;;;;5069302;28;20263;-63
2021/10/08 01:55:28;;;;;;;19.27;9.10;;;;;;;;;;5072131;28;20025;-64
2021/10/08 01:57:53;;;;;;;24.90;8.90;;;;;;;;;;5073821;28;20016;-64
2021/10/08 02:00:19;;;;;;;18.53;8.93;;;;;;;;;;5073252;28;20023;-65
2021/10/08 02:02:44;;;;;;;21.15;8.93;;;;;;;;;;5073281;28;20837;-64
2021/10/08 02:05:09;;;;;;;23.63;8.52;;;;;;;;;;5073416;28;20157;-65
2021/10/08 02:07:34;;;;;;;23.30;9.80;;;;;;;;;;5073369;28;20041;-64
2021/10/08 02:09:59;;;;;;;20.85;9.35;;;;;;;;;;5073228;28;20804;-64
2021/10/08 02:12:25;;;;;;;20.20;9.02;;;;;;;;;;5072964;28;20771;-64
2021/10/08 02:14:50;;;;;;;22.33;8.93;;;;;;;;;;5072947;28;20047;-64
2021/10/08 02:17:15;;;;;;;20.27;9.32;;;;;;;;;;5073115;28;20111;-64
2021/10/08 02:19:40;;;;;;;20.60;8.65;;;;;;;;;;5073318;28;20021;-64
2021/10/08 02:22:05;;;;;;;19.77;9.37;;;;;;;;;;5072933;28;20103;-64
2021/10/08 02:24:31;;;;;;;20.50;8.57;;;;;;;;;;5072724;28;20324;-64
2021/10/08 02:26:56;;;;;;;18.63;8.95;;;;;;;;;;5073052;28;20009;-64
2021/10/08 02:29:21;;;;;;;24.45;8.40;;;;;;;;;;5072797;28;20030;-65
2021/10/08 02:31:47;;;;;;;21.23;9.00;;;;;;;;;;5072878;28;20029;-64
2021/10/08 02:34:12;;;;;;;22.23;8.32;;;;;;;;;;5072659;28;20343;-67
2021/10/08 02:36:37;;;;;;;24.23;8.48;;;;;;;;;;5073159;28;20017;-64
2021/10/08 02:39:03;;;;;;;18.52;7.93;;;;;;;;;;5073272;28;20016;-64
2021/10/08 02:41:28;;;;;;;18.15;8.73;;;;;;;;;;5072665;28;20035;-64
2021/10/08 02:43:53;;;;;;;22.88;8.30;;;;;;;;;;5071070;28;20024;-64
2021/10/08 02:46:18;;;;;;;18.95;8.30;;;;;;;;;;5072657;28;20020;-65
2021/10/08 02:48:43;;;;;;;25.88;8.00;;;;;;;;;;5072787;28;20020;-64
2021/10/08 02:51:09;;;;;;;17.80;8.67;;;;;;;;;;5072483;28;20039;-64
2021/10/08 02:53:34;;;;;;;21.13;7.80;;;;;;;;;;5071852;28;20347;-64
2021/10/08 02:55:59;;;;;;;19.97;8.73;;;;;;;;;;5072758;28;20408;-64
2021/10/08 02:58:24;;;;;;;21.80;9.07;;;;;;;;;;5071966;28;20374;-64
2021/10/08 03:00:50;;;;;;;17.20;8.10;;;;;;;;;;5072275;28;20438;-64
2021/10/08 03:03:15;;;;;;;22.08;8.23;;;;;;;;;;5071979;28;20044;-65
2021/10/08 03:05:40;;;;;;;20.48;8.02;;;;;;;;;;5071599;28;20146;-64
2021/10/08 03:08:05;;;;;;;22.35;9.00;;;;;;;;;;5072093;28;20020;-64
2021/10/08 03:10:31;;;;;;;21.88;8.20;;;;;;;;;;5072218;28;20025;-65
2021/10/08 03:12:56;;;;;;;20.30;8.93;;;;;;;;;;5071721;28;20470;-64
2021/10/08 03:15:21;;;;;;;22.83;8.27;;;;;;;;;;5071681;28;20024;-64
2021/10/08 03:17:46;;;;;;;18.70;8.55;;;;;;;;;;5071700;28;20062;-64
2021/10/08 03:20:12;;;;;;;20.00;8.52;;;;;;;;;;5062952;28;20039;-67
2021/10/08 03:22:37;;;;;;;19.48;8.00;;;;;;;;;;5051852;28;20017;-64
2021/10/08 03:25:06;;;;;;;19.15;7.72;;;;;;;;;;5067892;28;20024;-64
2021/10/08 03:27:31;;;;;;;18.10;8.52;;;;;;;;;;5071997;28;20039;-64
2021/10/08 03:29:56;;;;;;;16.83;8.38;;;;;;;;;;5071989;28;20020;-65
2021/10/08 03:32:22;;;;;;;21.50;7.67;;;;;;;;;;5071316;28;20401;-64
2021/10/08 03:34:47;;;;;;;17.08;7.97;;;;;;;;;;5071835;28;20279;-65
2021/10/08 03:37:15;;;;;;;14.80;7.83;;;;;;;;;;5071899;28;20020;-64
2021/10/08 03:39:43;;;;;;;21.70;7.78;;;;;;;;;;5070258;28;20302;-64
2021/10/08 03:42:13;;;;;;;20.02;8.35;;;;;;;;;;5064045;28;20021;-64
2021/10/08 03:44:39;;;;;;;16.30;8.20;;;;;;;;;;5071791;28;20017;-64
2021/10/08 03:47:13;;;;;;;19.60;7.70;;;;;;;;;;5071518;28;20047;-64
2021/10/08 03:49:39;;;;;;;13.85;7.07;;;;;;;;;;5071610;28;20028;-65
2021/10/08 03:52:05;;;;;;;16.40;7.22;;;;;;;;;;5071367;28;20020;-65
2021/10/08 03:54:30;;;;;;;15.48;7.20;;;;;;;;;;5070988;28;20492;-63
2021/10/08 03:56:55;;;;;;;16.75;7.72;;;;;;;;;;5070728;28;20043;-64
2021/10/08 03:59:20;;;;;;;21.63;8.05;;;;;;;;;;5070491;28;20103;-64
2021/10/08 04:01:46;;;;;;;16.08;8.05;;;;;;;;;;5071196;28;20435;-64
2021/10/08 04:04:11;;;;;;;17.00;7.78;;;;;;;;;;5070817;28;20024;-63
2021/10/08 04:06:36;;;;;;;15.77;7.47;;;;;;;;;;5071443;28;20454;-64
2021/10/08 04:09:03;;;;;;;22.85;7.97;;;;;;;;;;5071131;28;20028;-65
2021/10/08 04:11:28;;;;;;;15.63;8.05;;;;;;;;;;5071013;28;20058;-64
2021/10/08 04:13:54;;;;;;;18.70;7.67;;;;;;;;;;5070086;28;20067;-66
2021/10/08 04:16:19;;;;;;;20.55;7.97;;;;;;;;;;5070926;28;20266;-63
2021/10/08 04:18:44;;;;;;;17.15;6.85;;;;;;;;;;5070805;28;20098;-64
2021/10/08 04:21:09;;;;;;;19.88;8.00;;;;;;;;;;5071173;28;20461;-63
2021/10/08 04:23:35;;;;;;;16.63;7.10;;;;;;;;;;5068966;28;20035;-64
2021/10/08 04:26:00;;;;;;;17.25;8.00;;;;;;;;;;5056194;28;20013;-64
2021/10/08 04:28:25;;;;;;;19.15;8.40;;;;;;;;;;5069694;28;20021;-65
2021/10/08 04:30:51;;;;;;;13.93;6.68;;;;;;;;;;5071050;28;20047;-64
2021/10/08 04:33:20;;;;;;;16.05;7.47;;;;;;;;;;5070534;28;20021;-64
2021/10/08 04:35:46;;;;;;;16.02;8.07;;;;;;;;;;5070796;28;20012;-64
2021/10/08 04:38:11;;;;;;;15.02;7.88;;;;;;;;;;5070705;28;20113;-64
2021/10/08 04:40:36;;;;;;;14.27;6.97;;;;;;;;;;5070903;28;20040;-63
2021/10/08 04:43:02;;;;;;;15.55;7.00;;;;;;;;;;5070610;28;20070;-64
2021/10/08 04:45:27;;;;;;;16.00;7.18;;;;;;;;;;5070066;28;20070;-65
2021/10/08 04:47:52;;;;;;;17.58;7.47;;;;;;;;;;5070693;28;20023;-65
2021/10/08 04:50:17;;;;;;;18.83;7.07;;;;;;;;;;5070662;28;20032;-64
2021/10/08 04:52:43;;;;;;;16.50;7.13;;;;;;;;;;5070471;28;20020;-64
2021/10/08 04:55:08;;;;;;;18.42;6.88;;;;;;;;;;5070272;28;20024;-64
2021/10/08 04:57:33;;;;;;;14.18;6.90;;;;;;;;;;5070470;28;20428;-64
2021/10/08 04:59:58;;;;;;;21.30;6.93;;;;;;;;;;5070586;28;20021;-64
2021/10/08 05:02:24;;;;;;;20.60;7.63;;;;;;;;;;5070012;28;20404;-64
2021/10/08 05:04:49;;;;;;;15.98;6.97;;;;;;;;;;5070393;28;20270;-64
2021/10/08 05:07:14;;;;;;;17.50;7.50;;;;;;;;;;5052346;28;20016;-64
2021/10/08 05:09:39;;;;;;;19.58;7.85;;;;;;;;;;5070475;28;20021;-65
2021/10/08 05:12:05;;;;;;;13.60;7.10;;;;;;;;;;5069643;28;20459;-64
2021/10/08 05:14:30;;;;;;;18.88;8.15;;;;;;;;;;5069101;28;20028;-65
2021/10/08 05:16:55;;;;;;;19.83;8.00;;;;;;;;;;5070494;28;20016;-64
2021/10/08 05:19:20;;;;;;;23.05;7.78;;;;;;;;;;5070316;28;20616;-65
2021/10/08 05:21:48;;;;;;;18.60;7.80;;;;;;;;;;5070348;28;20092;-64
2021/10/08 05:24:14;;;;;;;15.10;8.05;;;;;;;;;;5070200;28;20435;-64
2021/10/08 05:26:39;;;;;;;20.00;6.65;;;;;;;;;;5069639;28;20104;-64
2021/10/08 05:29:04;;;;;;;17.77;7.15;;;;;;;;;;5070302;28;20062;-64
2021/10/08 05:31:30;;;;;;;27.55;8.63;;;;;;;;;;5074459;28;20063;-64
2021/10/08 05:33:55;;;;;;;21.10;8.38;;;;;;;;;;5073830;28;20020;-64
2021/10/08 05:36:20;;;;;;;14.05;7.57;;;;;;;;;;5073913;28;20036;-66
2021/10/08 05:38:45;;;;;;;15.37;7.53;;;;;;;;;;5073682;28;20040;-65
2021/10/08 05:41:11;;;;;;;17.97;7.17;;;;;;;;;;5074001;28;20271;-65
2021/10/08 05:43:36;;;;;;;18.15;8.02;;;;;;;;;;5073742;28;20250;-65
2021/10/08 05:46:01;;;;;;;14.32;6.90;;;;;;;;;;5073889;28;20036;-65
2021/10/08 05:48:26;;;;;;;16.53;7.80;;;;;;;;;;5074006;28;20024;-65
2021/10/08 05:50:51;;;;;;;17.10;7.15;;;;;;;;;;5073440;28;20329;-64
2021/10/08 05:53:17;;;;;;;13.63;7.00;;;;;;;;;;5073126;28;20068;-66
2021/10/08 05:55:42;;;;;;;15.15;7.35;;;;;;;;;;5088284;22;20440;-69
2021/10/08 05:58:07;;;;;;;14.43;6.30;;;;;;;;;;5073388;28;20008;-68
2021/10/08 06:00:33;;;;;;;20.88;8.45;;;;;;;;;;5073609;28;20027;-69
2021/10/08 06:02:58;;;;;;;15.20;7.82;;;;;;;;;;5073646;28;20024;-69
2021/10/08 06:05:23;;;;;;;21.20;8.80;;;;;;;;;;5074037;28;20020;-68
2021/10/08 06:07:49;;;;;;;18.20;7.60;;;;;;;;;;5074009;28;20031;-69
2021/10/08 06:10:14;;;;;;;21.35;7.70;;;;;;;;;;5073673;28;20085;-69
2021/10/08 06:12:39;;;;;;;17.00;8.18;;;;;;;;;;5073208;28;20028;-69
2021/10/08 06:15:05;;;;;;;16.73;8.10;;;;;;;;;;5072883;28;20078;-69
2021/10/08 06:17:30;;;;;;;14.77;7.28;;;;;;;;;;5073440;28;20028;-69
2021/10/08 06:19:55;;;;;;;15.67;8.20;;;;;;;;;;5067412;28;20013;-69
2021/10/08 06:22:21;;;;;;;16.75;7.80;;;;;;;;;;5071337;28;20292;-69
2021/10/08 06:24:46;;;;;;;20.88;8.30;;;;;;;;;;5071293;28;20013;-69
2021/10/08 06:27:11;;;;;;;24.48;7.57;;;;;;;;;;5071287;28;20028;-69
2021/10/08 06:29:36;;;;;;;19.75;8.73;;;;;;;;;;5072461;28;20027;-69
2021/10/08 06:32:02;;;;;;;16.77;7.60;;;;;;;;;;5072570;28;20031;-69
2021/10/08 06:34:27;;;;;;;12.40;6.95;;;;;;;;;;5072679;28;20354;-69
2021/10/08 06:36:52;;;;;;;16.90;6.87;;;;;;;;;;5072790;28;20055;-69
2021/10/08 06:39:17;;;;;;;14.60;6.85;;;;;;;;;;5073019;28;20262;-69
2021/10/08 06:41:42;;;;;;;11.30;5.93;;;;;;;;;;5067912;28;20021;-69
2021/10/08 06:44:08;;;;;;;28.13;7.13;;;;;;;;;;5071630;28;20271;-69
2021/10/08 06:46:33;;;;;;;21.00;6.80;;;;;;;;;;5072983;28;20099;-69
2021/10/08 06:48:58;;;;;;;12.50;6.93;;;;;;;;;;5073073;28;20250;-69
2021/10/08 06:51:23;;;;;;;13.47;6.17;;;;;;;;;;5072919;28;20651;-69
2021/10/08 06:53:48;;;;;;;12.83;6.73;;;;;;;;;;5072123;28;20318;-70
2021/10/08 06:56:13;;;;;;;17.63;7.73;;;;;;;;;;5072539;28;20267;-70
2021/10/08 06:58:39;;;;;;;12.15;6.40;;;;;;;;;;5072464;28;20271;-70
2021/10/08 07:01:04;;;;;;;11.23;6.77;;;;;;;;;;5072208;28;20017;-70
2021/10/08 07:03:29;;;;;;;14.07;8.13;;;;;;;;;;5072545;28;20833;-70
2021/10/08 07:05:54;;;;;;;12.23;7.15;;;;;;;;;;5072471;28;20243;-70
2021/10/08 07:08:19;;;;;;;15.37;8.17;;;;;;;;;;5072734;28;20020;-70
2021/10/08 07:10:45;;;;;;;14.43;7.07;;;;;;;;;;5072408;28;20243;-70
2021/10/08 07:13:10;;;;;;;17.10;8.27;;;;;;;;;;5071769;28;20299;-70
2021/10/08 07:15:36;;;;;;;15.02;8.10;;;;;;;;;;5072167;28;20293;-71
2021/10/08 07:18:01;;;;;;;12.32;7.00;;;;;;;;;;5072387;28;20546;-70
2021/10/08 07:20:27;;;;;;;14.30;7.43;;;;;;;;;;5072484;28;20039;-70
2021/10/08 07:22:53;;;;;;;13.40;7.22;;;;;;;;;;5070385;28;20062;-71
2021/10/08 07:25:18;;;;;;;14.98;7.70;;;;;;;;;;5071648;28;20020;-71
2021/10/08 07:27:45;;;;;;;15.43;7.35;;;;;;;;;;5071924;28;20036;-71
2021/10/08 07:30:11;;;;;;;12.27;7.00;;;;;;;;;;5071801;28;20031;-71
2021/10/08 07:32:36;;;;;;;14.27;7.22;;;;;;;;;;5070465;28;20021;-70
2021/10/08 07:35:02;;;;;;;15.45;8.20;;;;;;;;;;5071207;28;20024;-70
2021/10/08 07:37:27;;;;;;;10.63;6.90;;;;;;;;;;5071468;28;20039;-71
2021/10/08 07:39:56;;;;;;;9.68;6.63;;;;;;;;;;5071376;28;20020;-71
2021/10/08 07:42:22;;;;;;;13.63;8.35;;;;;;;;;;5071233;28;20484;-71
2021/10/08 07:44:47;;;;;;;13.65;7.28;;;;;;;;;;5071611;28;20056;-71
2021/10/08 07:47:13;;;;;;;11.70;7.38;;;;;;;;;;5071614;28;20027;-70
2021/10/08 07:49:38;;;;;;;12.07;6.95;;;;;;;;;;5071405;28;20024;-71
2021/10/08 07:52:03;;;;;;;13.63;7.50;;;;;;;;;;5070549;28;20796;-71
2021/10/08 07:54:28;;;;;;;9.98;6.63;;;;;;;;;;5071354;28;20287;-71
2021/10/08 07:56:54;;;;;;;19.05;7.65;;;;;;;;;;5071126;28;20271;-71
2021/10/08 07:59:19;;;;;;;10.38;7.30;;;;;;;;;;5071465;28;20028;-71
2021/10/08 08:01:46;;;;;;;11.77;6.90;;;;;;;;;;5071556;28;20266;-72
2021/10/08 08:04:12;;;;;;;12.25;6.60;;;;;;;;;;5070856;28;20302;-71
2021/10/08 08:06:37;;;;;;;14.82;7.28;;;;;;;;;;5071532;28;20017;-71
2021/10/08 08:09:02;;;;;;;12.95;6.95;;;;;;;;;;5070943;28;20515;-71
2021/10/08 08:11:28;;;;;;;11.52;7.45;;;;;;;;;;5071557;28;20465;-71
2021/10/08 08:13:53;;;;;;;12.13;7.23;;;;;;;;;;5070658;28;20039;-71
2021/10/08 08:16:18;;;;;;;11.83;7.23;;;;;;;;;;5071152;28;20016;-72
2021/10/08 08:18:43;;;;;;;14.70;7.22;;;;;;;;;;5071201;28;20013;-71
2021/10/08 08:21:08;;;;;;;11.50;7.45;;;;;;;;;;5070228;28;20016;-71
2021/10/08 08:23:34;;;;;;;11.45;7.82;;;;;;;;;;5070604;28;20064;-71
2021/10/08 08:25:59;;;;;;;10.82;6.68;;;;;;;;;;5070053;28;20048;-71
2021/10/08 08:28:26;;;;;;;11.70;7.50;;;;;;;;;;5070978;28;20012;-71
2021/10/08 08:30:51;;;;;;;13.65;8.13;;;;;;;;;;5071078;28;20365;-71
2021/10/08 08:33:16;;;;;;;11.30;7.25;;;;;;;;;;5070809;28;20012;-71
2021/10/08 08:35:42;;;;;;;11.87;6.90;;;;;;;;;;5070581;28;20108;-71
2021/10/08 08:38:07;;;;;;;10.80;6.83;;;;;;;;;;5069947;28;20341;-71
2021/10/08 08:40:32;;;;;;;13.70;8.03;;;;;;;;;;5070693;28;20488;-71
2021/10/08 08:42:58;;;;;;;10.07;7.53;;;;;;;;;;5070608;28;20258;-72
2021/10/08 08:45:23;;;;;;;11.50;7.97;;;;;;;;;;5070707;28;20066;-72
2021/10/08 08:47:58;;;;;;;14.63;7.40;;;;;;;;;;5070179;28;20034;-71
2021/10/08 08:50:23;;;;;;;11.43;7.40;;;;;;;;;;5070592;28;20396;-71
2021/10/08 08:52:48;;;;;;;9.05;7.05;;;;;;;;;;5070413;28;20029;-71
2021/10/08 08:55:13;;;;;;;15.47;8.67;;;;;;;;;;5069812;28;20024;-71
2021/10/08 08:57:38;;;;;;;9.43;6.53;;;;;;;;;;5070785;28;20251;-71
2021/10/08 09:00:04;;;;;;;9.53;6.97;;;;;;;;;;5070276;28;20259;-71
2021/10/08 09:02:30;;;;;;;11.07;5.70;;;;;;;;;;5070267;28;20258;-73
2021/10/08 09:04:55;;;;;;;9.68;6.47;;;;;;;;;;5069161;28;20020;-71
2021/10/08 09:07:21;;;;;;;8.38;5.57;;;;;;;;;;5070395;28;20016;-71
2021/10/08 09:09:46;;;;;;;11.32;6.00;;;;;;;;;;5069791;28;20025;-71
2021/10/08 09:12:11;;;;;;;9.32;6.28;;;;;;;;;;5069988;28;20094;-71
2021/10/08 09:14:36;;;;;;;11.80;6.83;;;;;;;;;;5070348;28;20052;-71
2021/10/08 09:17:20;;;;;;;16.33;6.17;;;;;;;;;;5070196;28;20251;-72
2021/10/08 09:19:47;;;;;;;11.98;5.53;;;;;;;;;;5069719;28;20604;-73
2021/10/08 09:22:20;;;;;;;9.15;5.22;;;;;;;;;;5069847;28;20632;-72
2021/10/08 09:24:45;;;;;;;8.48;5.22;;;;;;;;;;5069834;28;20024;-72
2021/10/08 09:27:11;;;;;;;8.60;4.85;;;;;;;;;;5069708;28;20017;-71
2021/10/08 09:29:36;;;;;;;6.90;4.63;;;;;;;;;;5070225;28;20104;-71
2021/10/08 09:32:02;;;;;;;8.65;4.65;;;;;;;;;;5070015;28;20150;-72
2021/10/08 09:34:27;;;;;;;7.22;4.68;;;;;;;;;;5067555;28;20025;-72
2021/10/08 09:37:00;;;;;;;5.80;3.78;;;;;;;;;;5069947;28;20031;-72
2021/10/08 09:39:31;;;;;;;7.15;4.97;;;;;;;;;;5070419;28;20517;-71
2021/10/08 09:42:00;;;;;;;8.55;4.57;;;;;;;;;;5065712;28;20024;-72
2021/10/08 09:44:27;;;;;;;6.18;4.18;;;;;;;;;;5059185;28;20057;-71
2021/10/08 09:47:06;;;;;;;11.07;4.75;;;;;;;;;;5069952;28;20024;-72
2021/10/08 09:49:31;;;;;;;6.93;4.15;;;;;;;;;;5069907;28;20484;-72
2021/10/08 09:51:56;;;;;;;8.67;4.57;;;;;;;;;;5069248;28;20058;-71
2021/10/08 09:54:21;;;;;;;10.80;4.57;;;;;;;;;;5069660;28;20283;-71
2021/10/08 09:56:57;;;;;;;6.05;4.57;;;;;;;;;;5069710;28;20283;-72
2021/10/08 09:59:36;;;;;;;10.00;4.43;;;;;;;;;;5068668;28;20506;-72
2021/10/08 10:02:05;;;;;;;9.15;4.45;;;;;;;;;;5069582;28;20024;-72
2021/10/08 10:04:49;;;;;;;10.48;4.05;;;;;;;;;;5069572;28;20377;-72
2021/10/08 10:07:15;;;;;;;10.20;4.22;;;;;;;;;;5069451;28;20024;-71
2021/10/08 10:09:40;;;;;;;10.68;4.32;;;;;;;;;;5069863;28;20044;-71
2021/10/08 10:12:08;;;;;;;7.85;4.03;;;;;;;;;;5069498;28;20405;-71
2021/10/08 10:14:33;;;;;;;20.75;5.82;;;;;;;;;;5069808;28;20066;-71
2021/10/08 10:16:59;;;;;;;8.38;4.35;;;;;;;;;;5072669;28;20020;-71
2021/10/08 10:19:25;;;;;;;9.63;4.15;;;;;;;;;;5073483;28;20020;-71
2021/10/08 10:21:53;;;;;;;9.82;4.95;;;;;;;;;;5072939;28;20660;-71
2021/10/08 10:24:19;;;;;;;8.32;4.60;;;;;;;;;;5073399;28;20033;-71
2021/10/08 10:26:44;;;;;;;10.05;5.70;;;;;;;;;;5073662;28;20191;-72
2021/10/08 10:29:09;;;;;;;7.07;4.70;;;;;;;;;;5073678;28;20082;-72
2021/10/08 10:31:36;;;;;;;7.40;4.80;;;;;;;;;;5073293;28;20259;-72
2021/10/08 10:34:02;;;;;;;10.60;4.63;;;;;;;;;;5073030;28;20029;-72
2021/10/08 10:36:27;;;;;;;8.18;4.68;;;;;;;;;;5072925;28;20575;-72
2021/10/08 10:39:15;;;;;;;10.80;5.13;;;;;;;;;;5072483;28;20397;-72
2021/10/08 10:41:42;;;;;;;11.07;4.30;;;;;;;;;;5072916;28;20258;-72
2021/10/08 10:44:41;;;;;;;6.20;4.20;;;;;;;;;;5072443;28;20024;-72
2021/10/08 10:47:11;;;;;;;8.30;4.07;;;;;;;;;;5072220;28;20040;-72
2021/10/08 10:49:40;;;;;;;7.38;4.93;;;;;;;;;;5072606;28;20081;-71
2021/10/08 10:52:11;;;;;;;9.80;5.00;;;;;;;;;;5072581;28;20583;-71
2021/10/08 10:54:49;;;;;;;14.90;5.65;;;;;;;;;;5072683;28;20039;-72
2021/10/08 10:57:17;;;;;;;12.88;6.70;;;;;;;;;;5072936;28;20484;-72
2021/10/08 10:59:42;;;;;;;10.23;5.57;;;;;;;;;;5072787;28;20055;-72
2021/10/08 11:02:12;;;;;;;12.53;5.13;;;;;;;;;;5072424;28;20461;-71
2021/10/08 11:04:41;;;;;;;12.68;5.40;;;;;;;;;;5072398;28;20357;-72
2021/10/08 11:07:07;;;;;;;12.02;4.95;;;;;;;;;;5072537;28;20024;-72
2021/10/08 11:09:32;;;;;;;19.45;4.47;;;;;;;;;;5072289;28;20511;-72
2021/10/08 11:12:16;;;;;;;8.77;4.70;;;;;;;;;;5072213;28;20071;-72
2021/10/08 11:14:41;;;;;;;9.40;4.22;;;;;;;;;;5072162;28;20044;-72
2021/10/08 11:17:28;;;;;;;10.82;4.30;;;;;;;;;;5072356;28;20060;-72
2021/10/08 11:19:53;;;;;;;8.13;4.20;;;;;;;;;;5071698;28;20031;-72
2021/10/08 11:22:38;;;;;;;8.23;4.57;;;;;;;;;;5072006;28;20021;-72
2021/10/08 11:25:04;;;;;;;6.88;3.92;;;;;;;;;;5071664;28;21095;-72
2021/10/08 11:27:29;;;;;;;7.80;4.03;;;;;;;;;;5071174;28;20063;-71
2021/10/08 11:30:01;;;;;;;9.97;3.80;;;;;;;;;;5072093;28;20044;-72
2021/10/08 11:32:26;;;;;;;16.17;4.60;;;;;;;;;;5071851;28;20300;-72
2021/10/08 11:34:53;;;;;;;7.38;3.15;;;;;;;;;;5071716;28;20025;-72
2021/10/08 11:37:19;;;;;;;5.00;2.63;;;;;;;;;;5072199;28;20021;-72
2021/10/08 11:39:45;;;;;;;10.23;2.38;;;;;;;;;;5071804;28;20050;-72
2021/10/08 11:42:13;;;;;;;5.57;1.90;;;;;;;;;;5068785;28;20024;-72
2021/10/08 11:44:55;;;;;;;6.03;2.58;;;;;;;;;;5071457;28;20025;-72
2021/10/08 11:47:29;;;;;;;5.47;2.13;;;;;;;;;;5071525;28;20036;-72
2021/10/08 11:52:36;;;;;;;5.13;2.20;;;;;;;;;;5071525;28;20063;-72
2021/10/08 11:55:14;;;;;;;4.30;1.90;;;;;;;;;;5230146;22;20166;-67
2021/10/08 11:58:07;;;;;;;6.38;2.38;;;;;;;;;;5059668;28;20032;-66
2021/10/08 12:00:38;;;;;;;8.35;2.00;;;;;;;;;;5049152;28;20052;-66
2021/10/08 12:03:09;;;;;;;4.75;2.08;;;;;;;;;;5051064;28;20021;-66
2021/10/08 12:05:40;;;;;;;9.82;1.58;;;;;;;;;;5070703;28;20047;-64
2021/10/08 12:08:06;;;;;;;4.50;2.47;;;;;;;;;;5070848;28;20544;-66
2021/10/08 12:10:31;;;;;;;3.30;1.65;;;;;;;;;;5071083;28;20024;-66
2021/10/08 12:12:57;;;;;;;6.87;1.90;;;;;;;;;;5070504;28;20024;-66
2021/10/08 12:15:26;;;;;;;4.43;2.00;;;;;;;;;;5070989;28;20654;-67
2021/10/08 12:17:52;;;;;;;5.87;2.23;;;;;;;;;;5071193;28;20016;-66
2021/10/08 12:20:19;;;;;;;2.13;1.08;;;;;;;;;;5068801;28;20082;-66
2021/10/08 12:22:44;;;;;;;7.38;2.58;;;;;;;;;;5066149;28;20021;-66
2021/10/08 12:25:09;;;;;;;4.20;1.70;;;;;;;;;;5068625;28;20024;-66
2021/10/08 12:27:35;;;;;;;4.93;1.42;;;;;;;;;;5070992;28;20107;-68
2021/10/08 12:30:00;;;;;;;4.07;2.00;;;;;;;;;;5070610;28;20079;-67
2021/10/08 12:32:25;;;;;;;3.75;1.67;;;;;;;;;;5070231;28;20488;-64
2021/10/08 12:34:52;;;;;;;4.60;1.80;;;;;;;;;;5070519;28;20051;-68
2021/10/08 12:37:20;;;;;;;4.93;2.05;;;;;;;;;;5069407;28;20457;-66
2021/10/08 12:40:10;;;;;;;5.10;1.70;;;;;;;;;;5070289;28;20388;-67
2021/10/08 12:42:37;;;;;;;4.70;1.75;;;;;;;;;;5070215;28;20492;-66
2021/10/08 12:45:02;;;;;;;3.58;1.90;;;;;;;;;;5069897;28;20503;-66
2021/10/08 12:47:38;;;;;;;4.50;2.08;;;;;;;;;;5070322;28;20030;-66
2021/10/08 12:50:05;;;;;;;7.28;1.90;;;;;;;;;;5069798;28;20021;-66
2021/10/08 12:52:36;;;;;;;3.65;1.58;;;;;;;;;;5069713;28;20086;-66
2021/10/08 12:55:02;;;;;;;3.22;1.88;;;;;;;;;;5051653;28;20024;-65
2021/10/08 12:57:28;;;;;;;6.00;2.42;;;;;;;;;;5069737;28;20017;-66
2021/10/08 12:59:54;;;;;;;4.88;2.08;;;;;;;;;;5070220;28;20491;-66
2021/10/08 13:02:20;;;;;;;42.60;5.45;;;;;;;;;;5069991;28;20560;-66
2021/10/08 13:04:46;;;;;;;4.65;1.50;;;;;;;;;;5070079;28;20101;-66
2021/10/08 13:07:15;;;;;;;18.05;4.07;;;;;;;;;;5070317;28;20473;-66
2021/10/08 13:10:00;;;;;;;6.70;2.55;;;;;;;;;;5070034;28;20423;-66
2021/10/08 13:12:38;;;;;;;12.65;2.08;;;;;;;;;;5069794;28;20020;-65
2021/10/08 13:15:10;;;;;;;7.80;2.60;;;;;;;;;;5070168;28;20025;-66
2021/10/08 13:17:35;;;;;;;10.02;2.45;;;;;;;;;;5070054;28;20074;-66
2021/10/08 13:20:05;;;;;;;6.00;1.77;;;;;;;;;;5069918;28;20024;-66
2021/10/08 13:22:32;;;;;;;14.10;2.77;;;;;;;;;;5069588;28;20377;-66
2021/10/08 13:24:58;;;;;;;29.35;4.20;;;;;;;;;;5070005;28;20261;-66
2021/10/08 13:27:23;;;;;;;17.13;2.42;;;;;;;;;;5069896;28;20086;-65
2021/10/08 13:29:49;;;;;;;3.73;1.40;;;;;;;;;;5070247;28;20028;-66
2021/10/08 13:32:14;;;;;;;46.37;6.50;;;;;;;;;;5069328;28;20259;-66
2021/10/08 13:34:41;;;;;;;2.83;1.38;;;;;;;;;;5069903;28;20318;-66
2021/10/08 13:37:07;;;;;;;4.32;1.73;;;;;;;;;;5070282;28;20418;-66
2021/10/08 13:39:33;;;;;;;3.65;1.70;;;;;;;;;;5069681;28;20602;-66
2021/10/08 13:41:58;;;;;;;3.45;1.40;;;;;;;;;;5069756;28;20095;-66
2021/10/08 13:44:23;;;;;;;3.90;1.67;;;;;;;;;;5069544;28;20021;-66
2021/10/08 13:46:48;;;;;;;9.05;2.47;;;;;;;;;;5069854;28;20772;-67
2021/10/08 13:49:13;;;;;;;6.47;2.33;;;;;;;;;;5069357;28;20020;-65
2021/10/08 13:51:39;;;;;;;3.23;1.40;;;;;;;;;;5072906;28;20387;-66
2021/10/08 13:54:04;;;;;;;6.47;1.70;;;;;;;;;;5073572;28;20278;-66
2021/10/08 13:56:29;;;;;;;5.50;1.33;;;;;;;;;;5073722;28;20028;-66
2021/10/08 13:58:54;;;;;;;33.30;6.40;;;;;;;;;;5073757;28;20610;-66
2021/10/08 14:01:19;;;;;;;18.00;2.33;;;;;;;;;;5073018;28;20772;-66
2021/10/08 14:11:30;;;;;;;7.60;1.58;;;;;;;;;;5073171;28;20455;-66
2021/10/08 14:13:55;;;;;;;3.55;1.50;;;;;;;;;;5072694;28;20020;-66
2021/10/08 14:16:20;;;;;;;4.23;1.70;;;;;;;;;;5072651;28;20067;-66
2021/10/08 14:18:47;;;;;;;5.82;1.67;;;;;;;;;;5073107;28;20362;-66
2021/10/08 14:21:12;;;;;;;2.63;1.60;;;;;;;;;;5073409;28;20064;-66
2021/10/08 14:23:38;;;;;;;4.43;1.60;;;;;;;;;;5073037;28;20067;-66
2021/10/08 14:26:03;;;;;;;4.70;1.88;;;;;;;;;;5073132;28;20254;-65
2021/10/08 14:28:30;;;;;;;4.93;1.48;;;;;;;;;;5072648;28;20419;-65
2021/10/08 14:30:56;;;;;;;4.28;1.92;;;;;;;;;;5072619;28;20107;-65
2021/10/08 14:33:21;;;;;;;2.80;1.13;;;;;;;;;;5072551;28;20044;-66
2021/10/08 14:35:46;;;;;;;3.37;1.50;;;;;;;;;;5072888;28;20024;-66
2021/10/08 14:38:14;;;;;;;5.73;1.53;;;;;;;;;;5072557;28;20089;-65
2021/10/08 14:40:39;;;;;;;5.93;1.50;;;;;;;;;;5073111;28;20028;-66